createdAt,value
2018-03-28T00:02:30.420Z,20.03
2018-03-28T00:05:04.623Z,23.27
2018-03-28T00:07:38.879Z,20.17
2018-03-28T00:10:13.004Z,18.47
2018-03-28T00:12:47.276Z,18.20
2018-03-28T00:15:21.555Z,19.87
2018-03-28T00:17:55.653Z,20.63
2018-03-28T00:20:31.796Z,18.60
2018-03-28T00:23:06.871Z,24.97
2018-03-28T00:25:41.354Z,21.37
2018-03-28T00:28:15.647Z,18.33
2018-03-28T00:30:50.638Z,20.17
2018-03-28T00:33:24.975Z,18.50
2018-03-28T00:35:59.378Z,21.73
2018-03-28T00:38:33.679Z,21.57
2018-03-28T00:41:08.720Z,18.03
2018-03-28T00:43:43.277Z,18.27
2018-03-28T00:46:17.469Z,20.97
2018-03-28T00:48:51.618Z,21.67
2018-03-28T00:51:37.819Z,20.37
2018-03-28T00:54:12.180Z,23.60
2018-03-28T00:56:46.554Z,20.10
2018-03-28T00:59:20.822Z,20.93
2018-03-28T01:01:55.151Z,20.30
2018-03-28T01:04:30.229Z,21.10
2018-03-28T01:07:04.536Z,21.10
2018-03-28T01:09:38.870Z,21.40
2018-03-28T01:12:13.081Z,18.77
2018-03-28T01:14:47.304Z,21.83
2018-03-28T01:17:22.216Z,23.70
2018-03-28T01:19:56.342Z,21.90
2018-03-28T01:22:30.688Z,26.77
2018-03-28T01:25:05.009Z,22.63
2018-03-28T01:27:39.160Z,25.23
2018-03-28T01:30:14.176Z,29.90
2018-03-28T01:32:48.310Z,24.00
2018-03-28T01:35:22.648Z,24.37
2018-03-28T01:37:56.763Z,25.00
2018-03-28T01:40:31.105Z,28.30
2018-03-28T01:43:05.558Z,30.40
2018-03-28T01:45:39.740Z,33.10
2018-03-28T01:48:14.360Z,30.90
2018-03-28T01:50:48.686Z,31.00
2018-03-28T01:53:23.078Z,41.97
2018-03-28T01:55:57.464Z,39.47
2018-03-28T01:58:31.700Z,39.30
2018-03-28T02:01:06.056Z,39.00
2018-03-28T02:06:15.446Z,39.90
2018-03-28T02:08:50.473Z,48.37
2018-03-28T02:11:24.644Z,49.33
2018-03-28T02:13:58.916Z,45.23
2018-03-28T02:16:33.127Z,51.03
2018-03-28T02:19:07.348Z,47.93
2018-03-28T02:21:41.495Z,49.83
2018-03-28T02:24:16.574Z,54.37
2018-03-28T02:26:51.736Z,53.30
2018-03-28T02:29:26.093Z,62.53
2018-03-28T02:32:00.309Z,61.60
2018-03-28T02:34:35.494Z,61.07
2018-03-28T02:37:09.965Z,75.90
2018-03-28T02:39:44.558Z,69.27
2018-03-28T02:42:18.893Z,71.50
2018-03-28T02:44:53.334Z,66.50
2018-03-28T02:47:27.752Z,76.30
2018-03-28T02:50:02.852Z,78.10
2018-03-28T02:52:37.147Z,93.10
2018-03-28T02:55:11.524Z,82.20
2018-03-28T02:57:45.868Z,82.60
2018-03-28T03:00:20.144Z,88.20
2018-03-28T03:02:54.692Z,92.87
2018-03-28T03:05:29.077Z,84.17
2018-03-28T03:08:03.535Z,91.27
2018-03-28T03:10:38.569Z,110.20
2018-03-28T03:13:12.935Z,94.03
2018-03-28T03:15:48.085Z,104.30
2018-03-28T03:18:22.321Z,98.93
2018-03-28T03:20:56.732Z,103.47
2018-03-28T03:23:31.704Z,97.17
2018-03-28T03:26:05.991Z,108.63
2018-03-28T03:28:40.544Z,114.23
2018-03-28T03:31:14.778Z,113.83
2018-03-28T03:33:49.693Z,106.23
2018-03-28T03:36:23.993Z,111.87
2018-03-28T03:38:58.389Z,112.53
2018-03-28T03:41:32.751Z,110.03
2018-03-28T03:44:06.851Z,127.30
2018-03-28T03:46:41.177Z,127.73
2018-03-28T03:49:16.251Z,116.87
2018-03-28T03:51:50.642Z,141.03
2018-03-28T03:54:25.874Z,137.00
2018-03-28T03:57:00.210Z,132.00
2018-03-28T03:59:35.106Z,132.17
2018-03-28T04:02:09.496Z,134.90
2018-03-28T04:04:43.950Z,132.07
2018-03-28T04:07:18.077Z,131.63
2018-03-28T04:09:53.569Z,122.77
2018-03-28T04:12:28.101Z,126.53
2018-03-28T04:15:02.520Z,127.00
2018-03-28T04:17:36.748Z,132.43
2018-03-28T04:20:10.965Z,126.07
2018-03-28T04:22:45.421Z,130.40
2018-03-28T04:25:19.724Z,110.03
2018-03-28T04:27:53.858Z,112.47
2018-03-28T04:30:28.219Z,105.50
2018-03-28T04:33:02.421Z,118.27
2018-03-28T04:35:36.704Z,110.60
2018-03-28T04:38:10.945Z,105.33
2018-03-28T04:40:45.894Z,101.30
2018-03-28T04:43:20.022Z,103.53
2018-03-28T04:45:54.232Z,99.53
2018-03-28T04:48:28.352Z,86.77
2018-03-28T04:51:02.654Z,88.40
2018-03-28T04:53:37.144Z,89.83
2018-03-28T04:56:11.468Z,93.83
2018-03-28T04:58:45.813Z,86.40
2018-03-28T05:01:20.203Z,92.20
2018-03-28T05:03:54.517Z,92.60
2018-03-28T05:06:28.841Z,98.57
2018-03-28T05:09:02.999Z,93.97
2018-03-28T05:11:37.376Z,92.33
2018-03-28T05:14:11.876Z,97.13
2018-03-28T05:16:46.129Z,88.17
2018-03-28T05:19:21.189Z,84.17
2018-03-28T05:21:55.444Z,92.73
2018-03-28T05:24:29.670Z,97.03
2018-03-28T05:27:03.835Z,95.00
2018-03-28T05:29:38.085Z,98.83
2018-03-28T05:32:13.110Z,105.07
2018-03-28T05:34:47.320Z,96.20
2018-03-28T05:37:21.587Z,94.57
2018-03-28T05:39:55.986Z,92.70
2018-03-28T05:42:30.602Z,95.47
2018-03-28T05:45:04.745Z,99.60
2018-03-28T05:47:39.015Z,88.53
2018-03-28T05:50:13.290Z,92.67
2018-03-28T05:52:47.480Z,86.03
2018-03-28T05:55:21.841Z,86.80
2018-03-28T05:57:56.777Z,80.20
2018-03-28T06:00:31.763Z,74.60
2018-03-28T06:03:06.004Z,86.40
2018-03-28T06:05:40.756Z,80.03
2018-03-28T06:08:14.937Z,70.17
2018-03-28T06:10:49.051Z,79.17
2018-03-28T06:13:24.089Z,80.20
2018-03-28T06:15:58.315Z,89.40
2018-03-28T06:18:33.320Z,79.53
2018-03-28T06:21:07.760Z,75.97
2018-03-28T06:23:41.930Z,87.00
2018-03-28T06:26:16.228Z,85.70
2018-03-28T06:28:50.435Z,96.93
2018-03-28T06:31:25.115Z,79.87
2018-03-28T06:33:59.548Z,89.87
2018-03-28T06:36:34.584Z,94.47
2018-03-28T06:39:08.854Z,105.47
2018-03-28T06:41:43.106Z,80.80
2018-03-28T06:44:17.381Z,81.83
2018-03-28T06:46:51.546Z,84.50
2018-03-28T06:49:26.499Z,88.77
2018-03-28T06:52:00.859Z,93.57
2018-03-28T06:54:35.525Z,100.20
2018-03-28T06:57:10.004Z,106.63
2018-03-28T06:59:44.152Z,97.20
2018-03-28T07:02:18.702Z,93.13
2018-03-28T07:04:52.989Z,86.50
2018-03-28T07:07:27.283Z,87.80
2018-03-28T07:10:01.654Z,89.67
2018-03-28T07:12:36.014Z,80.13
2018-03-28T07:15:10.138Z,94.13
2018-03-28T07:17:44.403Z,83.50
2018-03-28T07:20:19.428Z,75.30
2018-03-28T07:22:53.810Z,90.07
2018-03-28T07:25:28.204Z,83.83
2018-03-28T07:28:03.092Z,74.83
2018-03-28T07:30:38.067Z,71.63
2018-03-28T07:33:12.329Z,76.20
2018-03-28T07:35:46.665Z,73.77
2018-03-28T07:38:20.833Z,66.20
2018-03-28T07:40:54.959Z,71.60
2018-03-28T07:43:29.096Z,73.23
2018-03-28T07:46:03.217Z,69.40
2018-03-28T07:48:37.344Z,63.93
2018-03-28T07:51:11.459Z,68.87
2018-03-28T07:53:45.757Z,70.53
2018-03-28T07:56:20.136Z,72.87
2018-03-28T07:58:54.523Z,66.00
2018-03-28T08:01:28.826Z,65.57
2018-03-28T08:04:02.941Z,66.20
2018-03-28T08:06:37.313Z,89.37
2018-03-28T08:09:11.798Z,72.37
2018-03-28T08:11:46.155Z,65.07
2018-03-28T08:14:20.568Z,62.27
2018-03-28T08:16:54.682Z,68.70
2018-03-28T08:19:28.796Z,62.70
2018-03-28T08:22:03.136Z,66.70
2018-03-28T08:24:37.442Z,65.17
2018-03-28T08:27:11.806Z,65.50
2018-03-28T08:29:46.265Z,67.30
2018-03-28T08:32:20.684Z,64.07
2018-03-28T08:34:55.131Z,56.67
2018-03-28T08:37:29.461Z,59.47
2018-03-28T08:40:03.665Z,55.83
2018-03-28T08:42:37.876Z,57.87
2018-03-28T08:45:12.144Z,54.20
2018-03-28T08:47:46.662Z,57.67
2018-03-28T08:50:20.872Z,60.23
2018-03-28T08:52:55.042Z,63.17
2018-03-28T08:55:29.160Z,61.50
2018-03-28T08:58:03.460Z,67.07
2018-03-28T09:00:37.684Z,66.30
2018-03-28T09:03:11.966Z,62.70
2018-03-28T09:05:46.106Z,64.53
2018-03-28T09:08:20.260Z,64.83
2018-03-28T09:10:54.514Z,68.73
2018-03-28T09:13:28.750Z,61.47
2018-03-28T09:16:03.148Z,65.67
2018-03-28T09:18:37.344Z,70.60
2018-03-28T09:21:11.719Z,63.43
2018-03-28T09:23:46.607Z,60.30
2018-03-28T09:26:20.969Z,62.77
2018-03-28T09:28:55.629Z,63.90
2018-03-28T09:31:31.033Z,65.13
2018-03-28T09:34:05.244Z,67.67
2018-03-28T09:36:39.416Z,67.90
2018-03-28T09:39:14.496Z,62.57
2018-03-28T09:41:49.530Z,60.50
2018-03-28T09:44:23.750Z,54.80
2018-03-28T09:46:58.649Z,63.20
2018-03-28T09:49:32.898Z,58.73
2018-03-28T09:52:07.991Z,55.37
2018-03-28T09:54:42.328Z,54.27
2018-03-28T09:57:17.452Z,51.90
2018-03-28T09:59:51.758Z,55.47
2018-03-28T10:02:31.128Z,52.40
2018-03-28T10:05:05.419Z,50.80
2018-03-28T10:07:39.674Z,49.83
2018-03-28T10:10:14.591Z,49.13
2018-03-28T10:12:48.900Z,49.73
2018-03-28T10:15:24.097Z,43.67
2018-03-28T10:17:58.460Z,41.77
2018-03-28T10:20:33.011Z,47.00
2018-03-28T10:23:08.048Z,47.63
2018-03-28T10:25:42.598Z,46.83
2018-03-28T10:28:16.917Z,49.07
2018-03-28T10:30:51.169Z,52.30
2018-03-28T10:33:25.364Z,55.23
2018-03-28T10:36:00.639Z,59.83
2018-03-28T10:38:34.928Z,56.73
2018-03-28T10:41:09.151Z,54.60
2018-03-28T10:43:43.393Z,57.30
2018-03-28T10:46:17.830Z,56.77
2018-03-28T10:48:52.205Z,53.83
2018-03-28T10:51:26.323Z,49.33
2018-03-28T10:54:00.605Z,40.27
2018-03-28T10:56:34.838Z,40.37
2018-03-28T10:59:09.402Z,39.47
2018-03-28T11:01:44.045Z,37.10
2018-03-28T11:04:18.934Z,41.10
2018-03-28T11:06:53.064Z,37.13
2018-03-28T11:09:27.349Z,38.17
2018-03-28T11:12:02.422Z,33.37
2018-03-28T11:14:36.527Z,35.83
2018-03-28T11:17:11.009Z,41.03
2018-03-28T11:19:45.336Z,36.57
2018-03-28T11:22:19.591Z,36.87
2018-03-28T11:24:53.818Z,32.13
2018-03-28T11:27:28.033Z,42.80
2018-03-28T11:30:02.243Z,35.33
2018-03-28T11:32:36.718Z,38.93
2018-03-28T11:35:11.025Z,45.17
2018-03-28T11:37:45.417Z,45.03
2018-03-28T11:40:19.620Z,48.80
2018-03-28T11:42:54.548Z,48.57
2018-03-28T11:45:29.489Z,47.50
2018-03-28T11:48:04.476Z,52.53
2018-03-28T11:50:38.631Z,43.27
2018-03-28T11:53:12.941Z,49.07
2018-03-28T11:55:47.412Z,50.57
2018-03-28T11:58:22.638Z,48.43
2018-03-28T12:00:57.543Z,52.90
2018-03-28T12:03:31.947Z,47.10
2018-03-28T12:06:07.064Z,45.40
2018-03-28T12:08:41.268Z,50.23
2018-03-28T12:11:15.643Z,43.50
2018-03-28T12:13:50.013Z,47.27
2018-03-28T12:16:24.470Z,53.30
2018-03-28T12:18:58.892Z,44.70
2018-03-28T12:21:34.131Z,51.27
2018-03-28T12:24:08.462Z,53.43
2018-03-28T12:26:42.548Z,47.17
2018-03-28T12:29:16.874Z,48.60
2018-03-28T12:31:51.171Z,50.43
2018-03-28T12:34:25.460Z,48.67
2018-03-28T12:36:59.936Z,45.23
2018-03-28T12:39:34.225Z,50.83
2018-03-28T12:42:08.510Z,49.00
2018-03-28T12:44:42.786Z,50.30
2018-03-28T12:47:17.040Z,50.27
2018-03-28T12:49:51.552Z,49.90
2018-03-28T12:52:25.508Z,48.43
2018-03-28T12:54:59.698Z,48.00
2018-03-28T12:57:34.655Z,46.17
2018-03-28T13:00:09.104Z,43.10
2018-03-28T13:02:44.042Z,49.70
2018-03-28T13:05:19.197Z,45.47
2018-03-28T13:07:53.501Z,46.70
2018-03-28T13:10:27.800Z,38.40
2018-03-28T13:13:02.104Z,43.80
2018-03-28T13:15:36.235Z,52.07
2018-03-28T13:18:10.456Z,46.77
2018-03-28T13:20:44.873Z,43.93
2018-03-28T13:23:19.130Z,41.33
2018-03-28T13:25:53.717Z,39.80
2018-03-28T13:28:28.674Z,38.90
2018-03-28T13:31:03.044Z,37.83
2018-03-28T13:33:38.583Z,37.80
2018-03-28T13:36:12.958Z,45.17
2018-03-28T13:38:47.333Z,45.77
2018-03-28T13:41:22.574Z,35.53
2018-03-28T13:43:56.792Z,37.07
2018-03-28T13:46:31.262Z,38.50
2018-03-28T13:49:05.452Z,36.53
2018-03-28T13:51:39.692Z,33.17
2018-03-28T13:54:13.932Z,30.77
2018-03-28T13:56:48.328Z,34.27
2018-03-28T13:59:22.700Z,35.20
2018-03-28T14:01:56.934Z,34.17
2018-03-28T14:04:31.193Z,40.43
2018-03-28T14:07:05.523Z,36.93
2018-03-28T14:09:39.807Z,31.80
2018-03-28T14:12:14.270Z,35.03
2018-03-28T14:14:48.416Z,29.77
2018-03-28T14:17:22.871Z,29.87
2018-03-28T14:19:57.181Z,29.20
2018-03-28T14:22:31.731Z,31.40
2018-03-28T14:25:06.004Z,28.40
2018-03-28T14:27:40.157Z,25.23
2018-03-28T14:30:14.496Z,27.47
2018-03-28T14:32:49.064Z,29.40
2018-03-28T14:35:23.348Z,31.10
2018-03-28T14:37:58.230Z,32.20
2018-03-28T14:40:32.428Z,28.20
2018-03-28T14:43:06.831Z,22.17
2018-03-28T14:45:42.202Z,23.93
2018-03-28T14:48:17.350Z,14.37
2018-03-28T14:50:52.520Z,15.53
2018-03-28T14:53:26.753Z,10.23
2018-03-28T14:56:00.876Z,10.00
2018-03-28T14:58:35.189Z,10.87
2018-03-28T15:01:09.403Z,10.20
2018-03-28T15:03:43.669Z,11.87
2018-03-28T15:06:17.853Z,6.80
2018-03-28T15:08:52.229Z,8.60
2018-03-28T15:11:26.546Z,10.17
2018-03-28T15:14:00.914Z,11.90
2018-03-28T15:16:35.146Z,11.60
2018-03-28T15:19:10.132Z,10.23
2018-03-28T15:21:44.355Z,12.10
2018-03-28T15:24:18.625Z,11.57
2018-03-28T15:26:52.743Z,9.20
2018-03-28T15:29:27.088Z,9.53
2018-03-28T15:32:01.995Z,9.37
2018-03-28T15:34:36.388Z,12.10
2018-03-28T15:37:10.586Z,18.20
2018-03-28T15:39:44.902Z,17.87
2018-03-28T15:42:19.148Z,10.07
2018-03-28T15:44:53.576Z,8.63
2018-03-28T15:47:27.701Z,7.80
2018-03-28T15:50:01.948Z,9.77
2018-03-28T15:52:36.186Z,7.27
2018-03-28T15:55:10.725Z,6.53
2018-03-28T15:57:44.898Z,7.97
2018-03-28T16:00:19.088Z,9.50
2018-03-28T16:02:53.224Z,10.83
2018-03-28T16:05:28.271Z,8.50
2018-03-28T16:08:02.386Z,7.40
2018-03-28T16:10:36.713Z,9.53
2018-03-28T16:13:11.122Z,10.03
2018-03-28T16:15:45.235Z,10.30
2018-03-28T16:18:19.504Z,12.50
2018-03-28T16:20:53.962Z,10.40
2018-03-28T16:23:28.211Z,11.13
2018-03-28T16:26:03.142Z,8.80
2018-03-28T16:28:37.320Z,8.93
2018-03-28T16:31:11.593Z,10.40
2018-03-28T16:33:45.959Z,12.63
2018-03-28T16:36:20.202Z,10.30
2018-03-28T16:38:54.534Z,8.53
2018-03-28T16:41:28.687Z,11.20
2018-03-28T16:44:02.988Z,8.00
2018-03-28T16:46:37.259Z,12.17
2018-03-28T16:49:11.391Z,9.90
2018-03-28T16:51:45.736Z,11.17
2018-03-28T16:54:19.860Z,10.70
2018-03-28T16:56:54.089Z,10.17
2018-03-28T16:59:28.575Z,9.27
2018-03-28T17:02:03.776Z,9.13
2018-03-28T17:04:37.964Z,8.80
2018-03-28T17:07:12.316Z,10.47
2018-03-28T17:09:47.399Z,8.97
2018-03-28T17:12:22.479Z,7.80
2018-03-28T17:14:56.689Z,9.40
2018-03-28T17:17:31.655Z,11.03
2018-03-28T17:20:06.698Z,11.07
2018-03-28T17:22:41.114Z,10.90
2018-03-28T17:25:16.082Z,11.90
2018-03-28T17:27:50.396Z,10.93
2018-03-28T17:30:25.344Z,9.27
2018-03-28T17:33:00.508Z,12.70
2018-03-28T17:35:34.776Z,8.77
2018-03-28T17:38:08.894Z,10.57
2018-03-28T17:40:43.430Z,14.10
2018-03-28T17:43:17.607Z,11.87
2018-03-28T17:45:51.851Z,16.87
2018-03-28T17:48:26.245Z,14.07
2018-03-28T17:51:01.243Z,16.07
2018-03-28T17:53:35.516Z,15.10
2018-03-28T17:56:09.700Z,18.10
2018-03-28T17:58:43.975Z,17.03
2018-03-28T18:01:18.168Z,13.20
2018-03-28T18:03:52.556Z,14.80
2018-03-28T18:06:26.909Z,15.87
2018-03-28T18:09:01.238Z,20.13
2018-03-28T18:11:35.448Z,14.67
2018-03-28T18:14:09.658Z,16.90
2018-03-28T18:16:44.468Z,15.50
2018-03-28T18:19:19.419Z,15.00
2018-03-28T18:21:54.350Z,14.60
2018-03-28T18:24:28.568Z,16.07
2018-03-28T18:27:02.869Z,14.40
2018-03-28T18:29:37.208Z,16.30
2018-03-28T18:32:11.446Z,14.30
2018-03-28T18:34:45.842Z,13.53
2018-03-28T18:37:20.773Z,12.57
2018-03-28T18:39:55.035Z,14.77
2018-03-28T18:42:29.269Z,11.67
2018-03-28T18:45:03.488Z,10.50
2018-03-28T18:47:37.712Z,10.20
2018-03-28T18:50:11.864Z,6.10
2018-03-28T18:52:46.133Z,5.40
2018-03-28T18:55:20.266Z,6.47
2018-03-28T18:57:54.358Z,5.43
2018-03-28T19:00:28.682Z,7.30
2018-03-28T19:03:03.136Z,4.10
2018-03-28T19:05:37.475Z,4.47
2018-03-28T19:08:12.373Z,3.60
2018-03-28T19:10:46.586Z,5.50
2018-03-28T19:13:20.816Z,6.40
2018-03-28T19:15:55.048Z,6.63
2018-03-28T19:18:29.496Z,6.60
2018-03-28T19:21:03.761Z,7.70
2018-03-28T19:23:38.075Z,12.90
2018-03-28T19:26:13.152Z,17.47
2018-03-28T19:28:47.458Z,12.97
2018-03-28T19:31:21.881Z,11.90
2018-03-28T19:33:57.322Z,14.83
2018-03-28T19:36:31.619Z,19.07
2018-03-28T19:39:06.006Z,18.93
2018-03-28T19:41:41.078Z,11.73
2018-03-28T19:44:15.301Z,17.50
2018-03-28T19:46:49.724Z,10.47
2018-03-28T19:49:24.052Z,12.50
2018-03-28T19:51:58.475Z,9.53
2018-03-28T19:54:32.788Z,7.17
2018-03-28T19:57:07.180Z,10.30
2018-03-28T19:59:41.396Z,9.37
2018-03-28T20:02:15.523Z,5.60
2018-03-28T20:04:49.858Z,7.30
2018-03-28T20:07:23.943Z,8.73
2018-03-28T20:09:58.199Z,8.87
2018-03-28T20:12:32.423Z,9.93
2018-03-28T20:15:06.739Z,10.47
2018-03-28T20:17:41.181Z,11.63
2018-03-28T20:20:16.498Z,11.80
2018-03-28T20:22:50.564Z,12.70
2018-03-28T20:25:24.956Z,12.03
2018-03-28T20:27:59.139Z,13.23
2018-03-28T20:30:33.317Z,14.90
2018-03-28T20:33:07.762Z,14.93
2018-03-28T20:35:42.040Z,19.37
2018-03-28T20:38:16.378Z,21.87
2018-03-28T20:40:50.735Z,23.53
2018-03-28T20:43:25.140Z,29.17
2018-03-28T20:45:59.432Z,32.73
2018-03-28T20:48:33.720Z,31.17
2018-03-28T20:51:08.120Z,27.00
2018-03-28T20:53:42.350Z,29.50
2018-03-28T20:56:17.756Z,31.43
2018-03-28T20:58:52.268Z,30.47
2018-03-28T21:01:26.495Z,30.00
2018-03-28T21:04:01.922Z,28.37
2018-03-28T21:06:36.090Z,25.77
2018-03-28T21:09:10.458Z,21.80
2018-03-28T21:11:44.784Z,23.40
2018-03-28T21:14:19.180Z,24.63
2018-03-28T21:16:53.393Z,26.57
2018-03-28T21:19:28.525Z,24.70
2018-03-28T21:22:02.771Z,20.60
2018-03-28T21:24:37.028Z,19.90
2018-03-28T21:27:11.314Z,26.50
2018-03-28T21:29:45.800Z,18.10
2018-03-28T21:32:20.154Z,21.50
2018-03-28T21:34:54.575Z,20.57
2018-03-28T21:37:29.087Z,22.67
2018-03-28T21:40:03.689Z,22.50
2018-03-28T21:42:37.817Z,21.83
2018-03-28T21:45:11.997Z,20.40
2018-03-28T21:47:46.506Z,18.27
2018-03-28T21:50:21.452Z,19.57
2018-03-28T21:52:56.191Z,19.00
2018-03-28T21:55:30.956Z,20.03
2018-03-28T21:58:05.179Z,23.63
2018-03-28T22:00:39.571Z,20.70
2018-03-28T22:03:14.821Z,19.83
2018-03-28T22:05:49.104Z,27.90
2018-03-28T22:08:23.375Z,22.40
2018-03-28T22:10:58.408Z,26.13
2018-03-28T22:13:32.808Z,26.93
2018-03-28T22:16:07.074Z,23.10
2018-03-28T22:18:41.461Z,18.27
2018-03-28T22:21:15.983Z,19.33
2018-03-28T22:23:50.399Z,21.70
2018-03-28T22:26:24.759Z,19.30
2018-03-28T22:28:59.132Z,16.43
2018-03-28T22:31:33.400Z,14.73
2018-03-28T22:34:07.554Z,14.40
2018-03-28T22:36:41.824Z,14.57
2018-03-28T22:39:16.405Z,15.13
2018-03-28T22:41:50.714Z,15.10
2018-03-28T22:44:25.043Z,13.40
2018-03-28T22:46:59.370Z,13.67
2018-03-28T22:49:34.492Z,17.23
2018-03-28T22:52:08.715Z,13.47
2018-03-28T22:54:42.931Z,12.47
2018-03-28T22:57:18.284Z,15.27
2018-03-28T22:59:52.420Z,15.27
2018-03-28T23:02:26.638Z,18.93
2018-03-28T23:05:00.821Z,13.03
2018-03-28T23:07:36.212Z,15.00
2018-03-28T23:10:10.407Z,17.00
2018-03-28T23:12:45.474Z,15.33
2018-03-28T23:15:20.440Z,13.80
2018-03-28T23:17:54.714Z,19.23
2018-03-28T23:20:28.908Z,20.27
2018-03-28T23:23:03.078Z,19.13
2018-03-28T23:25:37.294Z,17.73
2018-03-28T23:28:11.413Z,14.93
2018-03-28T23:30:45.533Z,13.33
2018-03-28T23:33:19.829Z,12.70
2018-03-28T23:41:24.877Z,12.93
2018-03-28T23:43:59.272Z,14.40
2018-03-28T23:46:33.426Z,11.17
2018-03-28T23:49:07.780Z,11.60
2018-03-28T23:51:42.138Z,9.00
2018-03-28T23:54:16.795Z,9.80
2018-03-28T23:56:51.744Z,9.10
2018-03-28T23:59:26.051Z,11.57
